Time;durP1;ratioP1;P1;durP2;ratioP2;P2;SDS_P1;SDS_P2;PMS_P1;PMS_P2;Temp;Humidity;BMP_temperature;BMP_pressure;BME280_temperature;BME280_humidity;BME280_pressure;Samples;Min_cycle;Max_cycle;Signal;HPM_P1;HPM_P2
2023/09/30 00:01:11;;;;;;;4.55;1.35;;;14.00;99.90;;;;;;5037790;28;20025;-65
2023/09/30 00:03:37;;;;;;;4.93;1.40;;;14.00;99.90;;;;;;5037537;28;20025;-65
2023/09/30 00:06:03;;;;;;;4.00;1.40;;;14.00;99.90;;;;;;5036470;28;20093;-65
2023/09/30 00:08:29;;;;;;;6.03;1.60;;;13.90;99.90;;;;;;5037937;28;20032;-65
2023/09/30 00:10:55;;;;;;;4.70;1.40;;;14.00;99.90;;;;;;5037490;28;20030;-65
2023/09/30 00:13:21;;;;;;;4.88;1.58;;;14.00;99.90;;;;;;5032216;28;20053;-65
2023/09/30 00:15:47;;;;;;;9.73;2.03;;;14.00;99.90;;;;;;5037521;28;20028;-65
2023/09/30 00:18:13;;;;;;;3.70;1.25;;;14.00;99.90;;;;;;5037700;28;20482;-65
2023/09/30 00:20:39;;;;;;;5.25;1.58;;;14.00;99.90;;;;;;5035956;28;20048;-65
2023/09/30 00:23:06;;;;;;;4.80;1.30;;;14.10;99.90;;;;;;5037486;28;20156;-65
2023/09/30 00:25:32;;;;;;;4.63;1.13;;;14.10;99.90;;;;;;5037270;28;20053;-65
2023/09/30 00:27:58;;;;;;;5.55;1.15;;;14.10;99.90;;;;;;5037460;28;20026;-65
2023/09/30 00:30:24;;;;;;;5.20;1.52;;;14.00;99.90;;;;;;5037354;28;20027;-65
2023/09/30 00:32:49;;;;;;;3.03;1.20;;;14.10;99.90;;;;;;5037439;28;20061;-65
2023/09/30 00:35:16;;;;;;;6.47;1.42;;;14.10;99.90;;;;;;5037011;28;20103;-65
2023/09/30 00:37:42;;;;;;;6.00;1.50;;;14.10;99.90;;;;;;5037282;28;20025;-65
2023/09/30 00:40:11;;;;;;;5.45;1.42;;;14.10;99.90;;;;;;5037036;28;20489;-65
2023/09/30 00:42:38;;;;;;;4.40;1.23;;;14.10;99.90;;;;;;5036632;28;20031;-65
2023/09/30 00:45:05;;;;;;;3.83;1.20;;;14.10;99.90;;;;;;5036859;28;20029;-65
2023/09/30 00:47:31;;;;;;;5.93;1.33;;;14.10;99.90;;;;;;5037088;28;20394;-65
2023/09/30 00:49:57;;;;;;;7.88;1.70;;;14.10;99.90;;;;;;5036855;28;20029;-65
2023/09/30 00:52:23;;;;;;;5.78;1.73;;;14.10;99.90;;;;;;5037095;28;20029;-65
2023/09/30 00:54:51;;;;;;;4.47;1.67;;;14.10;99.90;;;;;;5039140;28;20057;-65
2023/09/30 00:57:19;;;;;;;6.70;1.70;;;14.10;99.90;;;;;;5036846;28;20045;-65
2023/09/30 00:59:45;;;;;;;6.28;1.70;;;14.20;99.90;;;;;;5036964;28;20379;-65
2023/09/30 01:02:11;;;;;;;3.80;1.50;;;14.20;99.90;;;;;;5037047;28;20067;-65
2023/09/30 01:04:38;;;;;;;4.05;1.33;;;14.10;99.90;;;;;;5036598;28;20405;-65
2023/09/30 01:07:05;;;;;;;4.97;1.48;;;14.20;99.90;;;;;;5036926;28;20033;-65
2023/09/30 01:09:31;;;;;;;6.25;1.75;;;14.20;99.90;;;;;;5036821;28;20034;-65
2023/09/30 01:11:56;;;;;;;6.60;1.50;;;14.20;99.90;;;;;;5031600;28;20026;-65
2023/09/30 01:14:31;;;;;;;5.47;1.60;;;14.20;99.90;;;;;;5035688;28;20037;-65
2023/09/30 01:16:57;;;;;;;7.07;1.67;;;14.30;99.90;;;;;;5036794;28;20060;-65
2023/09/30 01:19:24;;;;;;;5.07;1.30;;;14.30;99.90;;;;;;5036776;28;20407;-65
2023/09/30 01:22:09;;;;;;;2.63;1.00;;;14.30;99.90;;;;;;5036810;28;20021;-65
2023/09/30 01:24:42;;;;;;;7.13;1.80;;;14.40;99.90;;;;;;5036997;28;20025;-65
2023/09/30 01:27:08;;;;;;;3.97;1.40;;;14.40;99.90;;;;;;5036725;28;20132;-65
2023/09/30 01:29:34;;;;;;;5.68;1.05;;;14.30;99.90;;;;;;5036633;28;20085;-65
2023/09/30 01:32:01;;;;;;;3.65;1.10;;;14.30;99.90;;;;;;5036589;28;20117;-65
2023/09/30 01:34:27;;;;;;;4.10;1.33;;;14.30;99.90;;;;;;5035170;28;20076;-65
2023/09/30 01:36:53;;;;;;;4.55;1.38;;;14.30;99.90;;;;;;5036675;28;20109;-65
2023/09/30 01:39:18;;;;;;;5.68;1.42;;;14.30;99.90;;;;;;5036714;28;20053;-65
2023/09/30 01:41:45;;;;;;;8.02;1.60;;;14.20;99.90;;;;;;5036075;28;20486;-65
2023/09/30 01:44:10;;;;;;;4.68;1.40;;;14.20;99.90;;;;;;5036813;28;20029;-65
2023/09/30 01:46:36;;;;;;;6.15;1.70;;;14.20;99.90;;;;;;5035232;28;20116;-65
2023/09/30 01:49:03;;;;;;;4.97;1.27;;;14.20;99.90;;;;;;5036241;28;20025;-65
2023/09/30 01:51:29;;;;;;;4.15;1.27;;;14.20;99.90;;;;;;5036491;28;20029;-65
2023/09/30 01:53:55;;;;;;;5.18;1.70;;;14.20;99.90;;;;;;5036475;28;20452;-65
2023/09/30 01:56:21;;;;;;;5.90;1.20;;;14.30;99.90;;;;;;5041049;28;20044;-65
2023/09/30 01:58:47;;;;;;;4.45;1.40;;;14.30;99.90;;;;;;5040039;28;20557;-65
2023/09/30 02:01:12;;;;;;;5.55;1.70;;;14.20;99.90;;;;;;5040139;28;20022;-65
2023/09/30 02:03:38;;;;;;;6.53;1.73;;;14.20;99.90;;;;;;5038533;28;20033;-65
2023/09/30 02:06:04;;;;;;;4.15;1.23;;;14.20;99.90;;;;;;5040165;28;20029;-65
2023/09/30 02:08:30;;;;;;;3.95;1.20;;;14.20;99.90;;;;;;5040176;28;20029;-65
2023/09/30 02:10:56;;;;;;;5.32;1.60;;;14.30;99.90;;;;;;5038753;28;20405;-65
2023/09/30 02:13:22;;;;;;;6.28;1.40;;;14.20;99.90;;;;;;5043989;28;20155;-65
2023/09/30 02:15:47;;;;;;;5.00;1.20;;;14.20;99.90;;;;;;5039478;28;20020;-65
2023/09/30 02:18:13;;;;;;;5.35;1.30;;;14.20;99.90;;;;;;5042117;28;20029;-65
2023/09/30 02:20:40;;;;;;;4.07;1.20;;;14.20;99.90;;;;;;5043895;28;20017;-65
2023/09/30 02:23:12;;;;;;;4.13;1.35;;;14.20;99.90;;;;;;5049613;28;20024;-65
2023/09/30 02:25:38;;;;;;;6.47;1.70;;;14.20;99.90;;;;;;5050140;28;20109;-65
2023/09/30 02:28:06;;;;;;;6.60;1.50;;;14.20;99.90;;;;;;5045714;28;20037;-65
2023/09/30 02:30:31;;;;;;;8.23;1.52;;;14.20;99.90;;;;;;5045584;28;20032;-65
2023/09/30 02:32:57;;;;;;;7.30;1.45;;;14.20;99.90;;;;;;5047604;28;20109;-65
2023/09/30 02:35:23;;;;;;;4.28;1.17;;;14.20;99.90;;;;;;5040775;28;20565;-65
2023/09/30 02:37:52;;;;;;;7.00;1.40;;;14.10;99.90;;;;;;5048750;28;20074;-65
2023/09/30 02:40:19;;;;;;;4.32;1.00;;;14.10;99.90;;;;;;5046598;28;20025;-65
2023/09/30 02:42:45;;;;;;;6.65;1.15;;;14.10;99.90;;;;;;5048389;28;20017;-65
2023/09/30 02:45:12;;;;;;;4.28;1.20;;;14.10;99.90;;;;;;5046368;28;20028;-65
2023/09/30 02:47:39;;;;;;;4.63;1.20;;;14.10;99.90;;;;;;5039096;28;20418;-65
2023/09/30 02:50:11;;;;;;;6.28;1.50;;;14.20;99.90;;;;;;5038413;28;20076;-65
2023/09/30 02:52:36;;;;;;;5.22;1.20;;;14.20;99.90;;;;;;5038796;28;20031;-65
2023/09/30 02:55:02;;;;;;;4.72;1.10;;;14.20;99.90;;;;;;5038703;28;20077;-65
2023/09/30 02:57:28;;;;;;;4.40;1.20;;;14.20;99.90;;;;;;5038625;28;20083;-65
2023/09/30 02:59:54;;;;;;;5.15;1.35;;;14.10;99.90;;;;;;5038526;28;20097;-65
2023/09/30 03:02:21;;;;;;;4.20;1.05;;;14.10;99.90;;;;;;5038468;28;20062;-65
2023/09/30 03:04:47;;;;;;;4.95;1.20;;;14.00;99.90;;;;;;5038154;28;20025;-66
2023/09/30 03:07:13;;;;;;;4.43;1.10;;;13.90;99.90;;;;;;5038256;28;20096;-66
2023/09/30 03:09:39;;;;;;;5.07;1.00;;;13.90;99.90;;;;;;5037174;28;20029;-65
2023/09/30 03:12:05;;;;;;;4.22;1.10;;;13.80;99.90;;;;;;5038070;28;20036;-65
2023/09/30 03:14:31;;;;;;;5.80;1.20;;;13.90;99.90;;;;;;5036972;28;20440;-66
2023/09/30 03:17:01;;;;;;;3.00;1.00;;;13.80;99.90;;;;;;5038249;28;20026;-66
2023/09/30 03:19:26;;;;;;;4.53;1.30;;;13.80;99.90;;;;;;5035555;28;20014;-66
2023/09/30 03:21:52;;;;;;;2.90;0.90;;;13.80;99.90;;;;;;5038048;28;20097;-66
2023/09/30 03:24:18;;;;;;;4.35;1.10;;;13.70;99.90;;;;;;5038358;28;20080;-66
2023/09/30 03:26:43;;;;;;;3.53;0.93;;;13.70;99.90;;;;;;5036797;28;20025;-65
2023/09/30 03:29:09;;;;;;;4.72;1.20;;;13.60;99.90;;;;;;5038194;28;20017;-65
2023/09/30 03:31:36;;;;;;;5.63;1.15;;;13.60;99.90;;;;;;5038283;28;20122;-65
2023/09/30 03:34:05;;;;;;;4.75;1.10;;;13.60;99.90;;;;;;5037709;28;20029;-65
2023/09/30 03:36:31;;;;;;;3.17;0.90;;;13.60;99.90;;;;;;5037940;28;20030;-65
2023/09/30 03:39:00;;;;;;;6.75;1.27;;;13.50;99.90;;;;;;5037944;28;20024;-65
2023/09/30 03:41:26;;;;;;;3.95;0.90;;;13.50;99.90;;;;;;5034345;28;20500;-65
2023/09/30 03:43:52;;;;;;;4.22;1.33;;;13.50;99.90;;;;;;5037888;28;20021;-65
2023/09/30 03:46:17;;;;;;;2.47;0.93;;;13.40;99.90;;;;;;5036589;28;20026;-65
2023/09/30 03:48:44;;;;;;;5.60;1.10;;;13.40;99.90;;;;;;5037555;28;20029;-65
2023/09/30 03:51:13;;;;;;;3.35;1.00;;;13.40;99.90;;;;;;5037840;28;20503;-65
2023/09/30 03:53:40;;;;;;;4.78;1.10;;;13.40;99.90;;;;;;5037688;28;20033;-65
2023/09/30 03:56:06;;;;;;;3.20;1.13;;;13.40;99.90;;;;;;5039502;28;20018;-65
2023/09/30 03:58:32;;;;;;;3.30;0.93;;;13.30;99.90;;;;;;5037512;28;20041;-65
2023/09/30 04:01:00;;;;;;;1.92;1.00;;;13.30;99.90;;;;;;5037632;28;20402;-65
2023/09/30 04:03:27;;;;;;;5.60;1.10;;;13.30;99.90;;;;;;5034916;28;20021;-65
2023/09/30 04:05:53;;;;;;;4.32;1.50;;;13.20;99.90;;;;;;5037395;28;20029;-65
2023/09/30 04:08:19;;;;;;;3.58;1.05;;;13.20;99.90;;;;;;5036129;28;20022;-65
2023/09/30 04:10:44;;;;;;;4.70;1.70;;;13.20;99.90;;;;;;5034651;28;20018;-65
2023/09/30 04:13:11;;;;;;;6.85;1.30;;;13.10;99.90;;;;;;5037440;28;20030;-64
2023/09/30 04:15:37;;;;;;;5.18;0.95;;;13.10;99.90;;;;;;5037333;28;20021;-65
2023/09/30 04:18:05;;;;;;;2.28;1.02;;;13.10;99.90;;;;;;5036620;28;20406;-65
2023/09/30 04:20:31;;;;;;;4.90;1.27;;;13.20;99.90;;;;;;5036956;28;20393;-65
2023/09/30 04:22:57;;;;;;;4.63;1.10;;;13.20;99.90;;;;;;5037168;28;20029;-65
2023/09/30 04:25:24;;;;;;;2.75;1.00;;;13.20;99.90;;;;;;5035458;28;20401;-65
2023/09/30 04:27:50;;;;;;;3.53;1.00;;;13.20;99.90;;;;;;5037358;28;20037;-65
2023/09/30 04:30:16;;;;;;;3.75;0.90;;;13.30;99.90;;;;;;5036854;28;20513;-65
2023/09/30 04:32:42;;;;;;;6.68;1.10;;;13.30;99.90;;;;;;5037205;28;20029;-65
2023/09/30 04:35:08;;;;;;;3.17;0.98;;;13.30;99.90;;;;;;5036857;28;20052;-65
2023/09/30 04:37:36;;;;;;;6.45;1.30;;;13.20;99.90;;;;;;5036933;28;20029;-65
2023/09/30 04:40:07;;;;;;;3.65;1.02;;;13.10;99.90;;;;;;5036690;28;20479;-65
2023/09/30 04:42:36;;;;;;;5.38;0.90;;;13.00;99.90;;;;;;5036684;28;20394;-65
2023/09/30 04:45:02;;;;;;;2.38;1.00;;;13.10;99.90;;;;;;5036967;28;20017;-65
2023/09/30 04:47:28;;;;;;;2.08;0.80;;;13.10;99.90;;;;;;5036930;28;20049;-65
2023/09/30 04:49:54;;;;;;;2.38;1.08;;;13.10;99.90;;;;;;5035994;28;20048;-65
2023/09/30 04:52:20;;;;;;;5.18;1.17;;;13.10;99.90;;;;;;5035166;28;20120;-65
2023/09/30 04:54:46;;;;;;;4.20;1.13;;;13.10;99.90;;;;;;5036745;28;20022;-65
2023/09/30 04:57:11;;;;;;;3.85;0.80;;;13.20;99.90;;;;;;5035352;28;20128;-65
2023/09/30 04:59:37;;;;;;;3.83;1.00;;;13.20;99.90;;;;;;5036309;28;20128;-65
2023/09/30 05:02:03;;;;;;;3.35;1.02;;;13.30;99.90;;;;;;5036691;28;20028;-65
2023/09/30 05:04:29;;;;;;;3.70;1.20;;;13.30;99.90;;;;;;5036443;28;20497;-65
2023/09/30 05:06:55;;;;;;;4.47;0.90;;;13.40;99.90;;;;;;5036369;28;20018;-65
2023/09/30 05:09:20;;;;;;;2.28;0.95;;;13.40;99.90;;;;;;5036597;28;20028;-65
2023/09/30 05:11:46;;;;;;;5.80;1.10;;;13.40;99.90;;;;;;5035030;28;20024;-65
2023/09/30 05:14:13;;;;;;;6.85;1.33;;;13.40;99.90;;;;;;5036526;28;20110;-65
2023/09/30 05:16:38;;;;;;;5.38;1.10;;;13.40;99.90;;;;;;5035251;28;20486;-65
2023/09/30 05:19:04;;;;;;;5.25;1.10;;;13.30;99.90;;;;;;5036203;28;20044;-65
2023/09/30 05:21:30;;;;;;;3.28;0.95;;;13.30;99.90;;;;;;5034090;28;20036;-65
2023/09/30 05:23:56;;;;;;;3.65;1.20;;;13.30;99.90;;;;;;5036320;28;20013;-65
2023/09/30 05:26:22;;;;;;;4.15;1.10;;;13.30;99.90;;;;;;5035142;28;20105;-65
2023/09/30 05:28:47;;;;;;;3.95;1.17;;;13.30;99.90;;;;;;5037197;28;20461;-64
2023/09/30 05:31:13;;;;;;;4.22;1.08;;;13.30;99.90;;;;;;5040507;28;20052;-65
2023/09/30 05:33:38;;;;;;;3.13;1.00;;;13.30;99.90;;;;;;5040067;28;20145;-65
2023/09/30 05:36:04;;;;;;;4.47;1.33;;;13.40;99.90;;;;;;5040282;28;20033;-65
2023/09/30 05:38:31;;;;;;;4.00;1.27;;;13.40;99.90;;;;;;5036387;28;20049;-65
2023/09/30 05:40:58;;;;;;;3.22;1.15;;;13.50;99.90;;;;;;5044698;28;20475;-65
2023/09/30 05:43:24;;;;;;;4.53;0.90;;;13.50;99.90;;;;;;5048186;28;20029;-65
2023/09/30 05:45:54;;;;;;;3.53;1.10;;;13.50;99.90;;;;;;5050633;28;20028;-65
2023/09/30 05:48:23;;;;;;;4.47;1.00;;;13.50;99.90;;;;;;5045714;28;20053;-65
2023/09/30 05:50:48;;;;;;;5.07;1.10;;;13.50;99.90;;;;;;5043495;28;20045;-65
2023/09/30 05:53:14;;;;;;;3.03;0.90;;;13.50;99.90;;;;;;5039956;28;20053;-65
2023/09/30 05:55:43;;;;;;;4.35;1.10;;;13.50;99.90;;;;;;5041939;28;20025;-65
2023/09/30 05:58:13;;;;;;;2.92;0.85;;;13.40;99.90;;;;;;5039765;28;20092;-65
2023/09/30 06:00:43;;;;;;;5.32;1.20;;;13.40;99.90;;;;;;5038486;28;20025;-65
2023/09/30 06:03:10;;;;;;;3.80;1.00;;;13.40;99.90;;;;;;5038658;28;20029;-65
2023/09/30 06:05:41;;;;;;;3.80;0.93;;;13.30;99.90;;;;;;5039082;28;20478;-65
2023/09/30 06:08:10;;;;;;;3.63;1.13;;;13.20;99.90;;;;;;5039422;28;20072;-64
2023/09/30 06:10:38;;;;;;;4.53;1.10;;;13.20;99.90;;;;;;5040133;28;20490;-64
2023/09/30 06:13:05;;;;;;;3.75;1.05;;;13.10;99.90;;;;;;5042915;28;20014;-65
2023/09/30 06:15:31;;;;;;;2.40;1.00;;;13.10;99.90;;;;;;5039125;28;20079;-64
2023/09/30 06:17:57;;;;;;;4.05;1.10;;;13.10;99.90;;;;;;5037859;28;20050;-65
2023/09/30 06:20:26;;;;;;;4.78;1.27;;;13.00;99.90;;;;;;5039251;28;20497;-65
2023/09/30 06:22:53;;;;;;;4.05;1.10;;;13.00;99.90;;;;;;5037517;28;20104;-65
2023/09/30 06:25:20;;;;;;;3.90;1.10;;;13.00;99.90;;;;;;5037704;28;20044;-66
2023/09/30 06:27:47;;;;;;;5.22;1.25;;;12.90;99.90;;;;;;5039304;28;20091;-66
2023/09/30 06:30:15;;;;;;;4.07;1.15;;;13.00;99.90;;;;;;5039364;28;20033;-65
2023/09/30 06:32:41;;;;;;;6.63;1.30;;;12.90;99.90;;;;;;5039164;28;20490;-64
2023/09/30 06:35:10;;;;;;;4.72;1.30;;;13.00;99.90;;;;;;5036292;28;20040;-64
2023/09/30 06:37:37;;;;;;;4.13;1.20;;;12.90;99.90;;;;;;5037827;28;20085;-65
2023/09/30 06:40:04;;;;;;;4.63;1.30;;;12.90;99.90;;;;;;5032450;28;20025;-65
2023/09/30 06:42:31;;;;;;;4.15;1.23;;;12.90;99.90;;;;;;5032938;28;20064;-65
2023/09/30 06:44:57;;;;;;;4.63;1.10;;;13.00;99.90;;;;;;5036437;28;20029;-65
2023/09/30 06:47:23;;;;;;;4.40;1.05;;;13.00;99.90;;;;;;5034999;28;20525;-65
2023/09/30 06:49:49;;;;;;;3.08;1.15;;;13.00;99.90;;;;;;5038328;28;20022;-65
2023/09/30 06:52:15;;;;;;;6.00;1.08;;;13.10;99.90;;;;;;5039114;28;20394;-65
2023/09/30 06:54:40;;;;;;;4.00;1.05;;;13.10;99.90;;;;;;5041285;28;20017;-65
2023/09/30 06:57:06;;;;;;;4.20;1.20;;;13.10;99.90;;;;;;5039010;28;20053;-65
2023/09/30 06:59:35;;;;;;;2.70;1.20;;;13.20;99.90;;;;;;5039083;28;20029;-66
2023/09/30 07:02:00;;;;;;;6.25;1.23;;;13.20;99.90;;;;;;5039137;28;20025;-65
2023/09/30 07:04:26;;;;;;;5.00;1.40;;;13.30;99.90;;;;;;5038866;28;20445;-65
2023/09/30 07:06:53;;;;;;;3.35;1.17;;;13.30;99.90;;;;;;5038926;28;20076;-65
2023/09/30 07:09:20;;;;;;;7.05;1.75;;;13.40;99.90;;;;;;5038958;28;20075;-65
2023/09/30 07:11:46;;;;;;;4.93;1.30;;;13.50;99.90;;;;;;5038772;28;20025;-65
2023/09/30 07:14:12;;;;;;;4.30;1.80;;;13.60;99.90;;;;;;5028781;28;20397;-65
2023/09/30 07:16:38;;;;;;;2.53;1.10;;;13.60;99.90;;;;;;5038927;28;20085;-65
2023/09/30 07:19:03;;;;;;;2.95;0.88;;;13.70;99.90;;;;;;5038725;28;20406;-65
2023/09/30 07:21:29;;;;;;;3.00;1.00;;;13.80;99.90;;;;;;5038881;28;20040;-65
2023/09/30 07:23:54;;;;;;;4.07;1.10;;;13.80;99.90;;;;;;5038176;28;21435;-65
2023/09/30 07:26:24;;;;;;;4.15;1.40;;;13.90;99.90;;;;;;5038673;28;20056;-65
2023/09/30 07:28:50;;;;;;;4.35;1.58;;;13.90;99.90;;;;;;5037977;28;20032;-65
2023/09/30 07:31:15;;;;;;;4.07;1.40;;;14.00;99.90;;;;;;5038703;28;20033;-65
2023/09/30 07:33:41;;;;;;;4.88;1.10;;;14.00;99.90;;;;;;5037861;28;20025;-65
2023/09/30 07:36:07;;;;;;;3.67;1.10;;;14.00;99.90;;;;;;5038354;28;20390;-65
2023/09/30 07:38:33;;;;;;;4.85;1.30;;;14.10;99.90;;;;;;5036547;28;20025;-65
2023/09/30 07:41:00;;;;;;;6.82;1.70;;;14.20;99.90;;;;;;5038154;28;20040;-65
2023/09/30 07:43:28;;;;;;;6.55;1.30;;;14.20;99.90;;;;;;5038253;28;20052;-65
2023/09/30 07:45:54;;;;;;;4.63;1.40;;;14.20;99.90;;;;;;5038166;28;20017;-65
2023/09/30 07:48:20;;;;;;;4.55;1.25;;;14.20;99.90;;;;;;5031004;28;20029;-65
2023/09/30 07:50:47;;;;;;;7.50;1.40;;;14.20;99.90;;;;;;5037315;28;20034;-65
2023/09/30 07:53:13;;;;;;;5.40;1.30;;;14.20;99.90;;;;;;5037132;28;20584;-65
2023/09/30 07:55:39;;;;;;;5.78;1.50;;;14.30;99.90;;;;;;5040418;28;20053;-65
2023/09/30 07:58:07;;;;;;;4.10;1.60;;;14.30;99.90;;;;;;5039594;28;20061;-65
2023/09/30 08:00:33;;;;;;;8.45;1.85;;;14.30;99.90;;;;;;5037765;28;20083;-65
2023/09/30 08:03:00;;;;;;;5.95;1.80;;;14.50;99.90;;;;;;5037591;28;20108;-64
2023/09/30 08:05:26;;;;;;;5.15;1.50;;;14.60;99.90;;;;;;5037080;28;20034;-64
2023/09/30 08:07:52;;;;;;;5.85;1.60;;;14.60;99.90;;;;;;5036624;28;20036;-64
2023/09/30 08:10:18;;;;;;;6.78;2.00;;;14.70;99.90;;;;;;5037471;28;20041;-64
2023/09/30 08:12:48;;;;;;;4.57;1.48;;;14.80;99.90;;;;;;5037182;28;20029;-64
2023/09/30 08:15:14;;;;;;;5.53;2.15;;;14.90;99.90;;;;;;5037810;28;20071;-65
2023/09/30 08:17:40;;;;;;;3.80;1.88;;;14.90;99.90;;;;;;5037668;28;20018;-64
2023/09/30 08:20:08;;;;;;;7.95;1.92;;;14.90;99.90;;;;;;5036983;28;20021;-64
2023/09/30 08:22:34;;;;;;;6.40;2.05;;;15.00;99.90;;;;;;5037178;28;20097;-65
2023/09/30 08:25:00;;;;;;;5.85;2.17;;;15.10;99.90;;;;;;5036718;28;20064;-64
2023/09/30 08:27:25;;;;;;;7.53;3.20;;;15.10;99.90;;;;;;5035534;28;20036;-64
2023/09/30 08:29:51;;;;;;;9.63;3.50;;;15.20;99.90;;;;;;5035778;28;20028;-64
2023/09/30 08:32:17;;;;;;;9.88;4.03;;;15.20;99.90;;;;;;5035751;28;20089;-64
2023/09/30 08:34:42;;;;;;;9.60;4.60;;;15.30;99.90;;;;;;5035649;28;20104;-64
2023/09/30 08:37:09;;;;;;;10.18;4.82;;;15.40;99.90;;;;;;5036976;28;20036;-64
2023/09/30 08:39:39;;;;;;;9.80;4.45;;;15.50;99.90;;;;;;5037400;28;20030;-64
2023/09/30 08:42:09;;;;;;;8.80;3.95;;;15.60;99.90;;;;;;5036633;28;20100;-64
2023/09/30 08:44:37;;;;;;;5.97;3.33;;;15.60;99.90;;;;;;5034636;28;20121;-64
2023/09/30 08:47:03;;;;;;;7.75;3.22;;;15.60;99.90;;;;;;5037042;28;20170;-64
2023/09/30 08:49:29;;;;;;;6.20;3.10;;;15.70;99.90;;;;;;5032666;28;20049;-64
2023/09/30 08:51:57;;;;;;;8.77;2.97;;;15.80;99.90;;;;;;5037231;28;20021;-64
2023/09/30 08:54:23;;;;;;;7.88;2.75;;;15.80;99.90;;;;;;5039468;28;20100;-64
2023/09/30 08:56:49;;;;;;;6.55;2.65;;;15.90;99.90;;;;;;5036991;28;20632;-64
2023/09/30 08:59:15;;;;;;;7.07;2.60;;;16.00;99.90;;;;;;5037081;28;20552;-64
2023/09/30 09:01:41;;;;;;;5.25;2.40;;;16.10;99.90;;;;;;5036691;28;20401;-64
2023/09/30 09:04:07;;;;;;;6.88;2.42;;;16.10;99.90;;;;;;5035854;28;20025;-64
2023/09/30 09:06:33;;;;;;;7.53;2.55;;;16.20;99.90;;;;;;5037079;28;20389;-64
2023/09/30 09:09:19;;;;;;;9.18;3.05;;;16.20;99.90;;;;;;5036528;28;20025;-64
2023/09/30 09:11:45;;;;;;;6.85;2.85;;;16.30;99.90;;;;;;5040453;28;20044;-64
2023/09/30 09:14:11;;;;;;;7.38;2.90;;;16.40;99.90;;;;;;5037274;28;20494;-64
2023/09/30 09:16:36;;;;;;;5.40;2.38;;;16.40;99.90;;;;;;5036919;28;20057;-64
2023/09/30 09:19:17;;;;;;;7.30;2.28;;;16.40;99.90;;;;;;5036729;28;20029;-64
2023/09/30 09:21:57;;;;;;;7.20;2.30;;;16.50;99.90;;;;;;5037060;28;20378;-64
2023/09/30 09:24:42;;;;;;;6.80;2.25;;;16.60;99.90;;;;;;5035655;28;20041;-64
2023/09/30 09:27:12;;;;;;;6.55;2.63;;;16.60;99.90;;;;;;5036551;28;20482;-64
2023/09/30 09:29:39;;;;;;;7.57;2.70;;;16.70;99.90;;;;;;5036836;28;20029;-64
2023/09/30 09:32:11;;;;;;;6.60;2.50;;;16.70;99.90;;;;;;5036565;28;20037;-64
2023/09/30 09:34:38;;;;;;;6.67;2.27;;;16.80;99.90;;;;;;5036359;28;20029;-64
2023/09/30 09:37:17;;;;;;;5.70;2.20;;;16.80;99.90;;;;;;5036586;28;20522;-64
2023/09/30 09:39:56;;;;;;;5.65;2.70;;;16.90;99.90;;;;;;5035769;28;20025;-64
2023/09/30 09:42:30;;;;;;;6.50;2.40;;;16.90;99.90;;;;;;5032032;28;20036;-64
2023/09/30 09:44:59;;;;;;;5.68;2.45;;;17.00;99.90;;;;;;5036507;28;20111;-64
2023/09/30 09:47:25;;;;;;;6.30;2.50;;;17.00;99.90;;;;;;5030097;28;20449;-64
2023/09/30 09:49:52;;;;;;;5.65;2.60;;;17.10;99.90;;;;;;5035900;28;20033;-64
2023/09/30 09:52:19;;;;;;;7.82;2.90;;;17.10;99.90;;;;;;5036451;28;20076;-64
2023/09/30 09:54:48;;;;;;;7.53;2.47;;;17.20;99.90;;;;;;5038746;28;20049;-64
2023/09/30 09:57:15;;;;;;;6.95;3.15;;;17.30;99.90;;;;;;5036447;28;20079;-64
2023/09/30 09:59:45;;;;;;;6.15;3.08;;;17.30;99.90;;;;;;5036492;28;20077;-64
2023/09/30 10:02:14;;;;;;;7.65;2.83;;;17.30;99.90;;;;;;5036549;28;20017;-64
2023/09/30 10:04:42;;;;;;;6.93;2.80;;;17.30;99.90;;;;;;5036057;28;20029;-64
2023/09/30 10:07:21;;;;;;;5.97;2.67;;;17.30;99.90;;;;;;5036619;28;20029;-64
2023/09/30 10:09:50;;;;;;;8.82;2.45;;;17.40;99.90;;;;;;5036169;28;20029;-64
2023/09/30 10:12:17;;;;;;;6.43;2.72;;;17.40;99.90;;;;;;5036149;28;20060;-64
2023/09/30 10:14:43;;;;;;;7.93;2.50;;;17.50;99.90;;;;;;5036054;28;20024;-64
2023/09/30 10:17:10;;;;;;;7.55;2.33;;;17.50;99.90;;;;;;5038748;28;20060;-65
2023/09/30 10:19:35;;;;;;;7.10;2.63;;;17.50;99.90;;;;;;5039256;28;20032;-64
2023/09/30 10:22:17;;;;;;;6.55;2.38;;;17.50;99.90;;;;;;5039192;28;20017;-64
2023/09/30 10:24:43;;;;;;;5.65;2.42;;;17.60;99.90;;;;;;5039582;28;20500;-64
2023/09/30 10:27:28;;;;;;;6.82;2.40;;;17.70;99.90;;;;;;5038388;28;20021;-64
2023/09/30 10:30:10;;;;;;;8.50;2.72;;;17.70;99.90;;;;;;5038407;28;20051;-64
2023/09/30 10:32:51;;;;;;;8.45;2.58;;;17.80;99.90;;;;;;5037192;28;20084;-64
2023/09/30 10:35:18;;;;;;;7.10;2.58;;;17.80;99.90;;;;;;5039055;28;20040;-64
2023/09/30 10:37:44;;;;;;;6.18;2.63;;;17.80;99.90;;;;;;5038959;28;20036;-64
2023/09/30 10:40:26;;;;;;;5.88;2.30;;;17.90;99.90;;;;;;5036229;28;20023;-64
2023/09/30 10:42:55;;;;;;;7.28;2.40;;;17.90;99.90;;;;;;5038174;28;20036;-64
2023/09/30 10:45:38;;;;;;;7.00;2.67;;;18.00;99.90;;;;;;5038483;28;20677;-64
2023/09/30 10:48:41;;;;;;;7.45;2.80;;;18.00;99.90;;;;;;5027629;28;20021;-63
2023/09/30 10:51:22;;;;;;;7.57;2.58;;;18.10;99.90;;;;;;5031619;28;20049;-64
2023/09/30 10:53:51;;;;;;;6.72;2.60;;;18.20;99.90;;;;;;5039359;28;20060;-64
2023/09/30 10:56:18;;;;;;;7.93;2.60;;;18.20;99.90;;;;;;5040905;28;20022;-64
2023/09/30 10:58:52;;;;;;;6.30;2.67;;;18.20;99.90;;;;;;5038168;28;20056;-64
2023/09/30 11:01:22;;;;;;;7.15;2.65;;;18.30;99.90;;;;;;5038599;28;20037;-64
2023/09/30 11:03:51;;;;;;;7.38;2.70;;;18.30;99.90;;;;;;5038841;28;20053;-64
2023/09/30 11:06:20;;;;;;;6.65;2.47;;;18.40;99.90;;;;;;5037668;28;20052;-64
2023/09/30 11:08:59;;;;;;;5.72;2.45;;;18.40;99.90;;;;;;5037964;28;20030;-64
2023/09/30 11:11:51;;;;;;;8.25;2.90;;;18.50;99.90;;;;;;5038626;28;20029;-64
2023/09/30 11:14:37;;;;;;;7.18;2.63;;;18.50;99.90;;;;;;5038412;28;20030;-64
2023/09/30 11:17:05;;;;;;;8.35;2.80;;;18.60;99.90;;;;;;5039361;28;20425;-65
2023/09/30 11:19:37;;;;;;;8.55;2.85;;;18.60;99.90;;;;;;5037960;28;20106;-64
2023/09/30 11:22:03;;;;;;;8.43;2.75;;;18.70;99.90;;;;;;5038338;28;20035;-64
2023/09/30 11:24:29;;;;;;;7.43;2.72;;;18.70;99.90;;;;;;5038357;28;20393;-64
2023/09/30 11:26:55;;;;;;;8.65;3.13;;;18.70;99.90;;;;;;5037605;28;20029;-64
2023/09/30 11:29:21;;;;;;;8.10;3.08;;;18.70;99.90;;;;;;5038453;28;20025;-64
2023/09/30 11:31:48;;;;;;;8.80;2.78;;;18.80;99.90;;;;;;5038323;28;20091;-65
2023/09/30 11:34:16;;;;;;;8.10;3.05;;;18.80;99.90;;;;;;5038335;28;20025;-64
2023/09/30 11:36:51;;;;;;;6.80;2.63;;;18.80;99.90;;;;;;5038223;28;20025;-64
2023/09/30 11:39:27;;;;;;;9.13;2.67;;;18.90;99.90;;;;;;5038505;28;21104;-64
2023/09/30 11:41:55;;;;;;;6.80;2.80;;;18.90;99.90;;;;;;5035136;28;20017;-64
2023/09/30 11:44:21;;;;;;;8.07;3.20;;;18.90;99.90;;;;;;5038474;28;20056;-64
2023/09/30 11:46:59;;;;;;;6.65;2.97;;;19.00;99.90;;;;;;5035564;28;20088;-64
2023/09/30 11:49:28;;;;;;;8.07;2.97;;;19.00;99.90;;;;;;5032714;28;20017;-64
2023/09/30 11:51:55;;;;;;;6.43;2.92;;;19.10;99.90;;;;;;5038140;28;20107;-64
2023/09/30 11:54:22;;;;;;;8.55;2.78;;;19.00;99.90;;;;;;5040042;28;20044;-64
2023/09/30 11:56:48;;;;;;;6.75;3.42;;;19.00;99.90;;;;;;5036843;28;20410;-65
2023/09/30 11:59:14;;;;;;;8.90;3.40;;;19.10;99.90;;;;;;5037512;28;20501;-64
2023/09/30 12:01:40;;;;;;;7.88;3.33;;;19.10;99.90;;;;;;5038270;28;20049;-65
2023/09/30 12:04:06;;;;;;;7.97;3.15;;;19.20;99.90;;;;;;5037542;28;20036;-64
2023/09/30 12:06:34;;;;;;;6.93;2.90;;;19.20;99.90;;;;;;5037977;28;20033;-64
2023/09/30 12:08:59;;;;;;;8.30;3.13;;;19.30;99.90;;;;;;5037558;28;20095;-64
2023/09/30 12:11:25;;;;;;;7.15;3.03;;;19.30;99.90;;;;;;5037738;28;20030;-65
2023/09/30 12:13:51;;;;;;;6.45;2.97;;;19.30;99.90;;;;;;5036320;28;20026;-65
2023/09/30 12:16:17;;;;;;;8.98;3.13;;;19.20;99.90;;;;;;5037783;28;20030;-64
2023/09/30 12:18:43;;;;;;;8.75;3.38;;;19.20;99.90;;;;;;5037297;28;20051;-65
2023/09/30 12:21:13;;;;;;;8.70;3.60;;;19.30;99.90;;;;;;5037763;28;20048;-64
2023/09/30 12:23:39;;;;;;;8.45;3.25;;;19.40;99.90;;;;;;5037564;28;20071;-65
2023/09/30 12:26:05;;;;;;;7.82;3.17;;;19.40;99.90;;;;;;5039241;28;20029;-65
2023/09/30 12:28:35;;;;;;;8.27;3.25;;;19.50;99.90;;;;;;5037370;28;20393;-64
2023/09/30 12:31:04;;;;;;;8.07;3.35;;;19.50;99.90;;;;;;5035949;28;20033;-64
2023/09/30 12:33:31;;;;;;;9.35;3.25;;;19.50;99.90;;;;;;5036907;28;20118;-65
2023/09/30 12:35:58;;;;;;;7.25;3.05;;;19.60;99.90;;;;;;5037124;28;20546;-64
2023/09/30 12:38:25;;;;;;;9.35;3.55;;;19.60;99.90;;;;;;5038319;28;20124;-64
2023/09/30 12:40:52;;;;;;;7.43;3.38;;;19.70;99.90;;;;;;5035379;28;20056;-64
2023/09/30 12:43:17;;;;;;;7.88;3.33;;;19.70;99.90;;;;;;5037039;28;20022;-64
2023/09/30 12:45:43;;;;;;;6.57;3.08;;;19.70;99.70;;;;;;5036814;28;20047;-65
2023/09/30 12:48:08;;;;;;;6.22;3.00;;;19.70;99.90;;;;;;5035118;28;20021;-64
2023/09/30 12:50:34;;;;;;;8.40;3.28;;;19.70;99.90;;;;;;5040905;28;20127;-64